sensor_id;sensor_type;location;lat;lon;timestamp;P1;durP1;ratioP1;P2;durP2;ratioP2
52590;SDS011;38483;42.620;25.394;2023-03-16T00:00:27;10.83;;;7.57;;
52590;SDS011;38483;42.620;25.394;2023-03-16T00:03:48;8.33;;;6.57;;
52590;SDS011;38483;42.620;25.394;2023-03-16T00:07:10;10.87;;;6.57;;
52590;SDS011;38483;42.620;25.394;2023-03-16T00:10:30;11.67;;;6.23;;
52590;SDS011;38483;42.620;25.394;2023-03-16T00:13:51;11.30;;;6.87;;
52590;SDS011;38483;42.620;25.394;2023-03-16T00:17:15;12.33;;;6.20;;
52590;SDS011;38483;42.620;25.394;2023-03-16T00:20:51;8.90;;;6.00;;
52590;SDS011;38483;42.620;25.394;2023-03-16T00:24:11;12.07;;;7.03;;
52590;SDS011;38483;42.620;25.394;2023-03-16T00:27:32;9.10;;;6.00;;
52590;SDS011;38483;42.620;25.394;2023-03-16T00:30:53;9.43;;;6.40;;
52590;SDS011;38483;42.620;25.394;2023-03-16T00:34:13;11.33;;;6.20;;
52590;SDS011;38483;42.620;25.394;2023-03-16T00:37:35;14.43;;;6.90;;
52590;SDS011;38483;42.620;25.394;2023-03-16T00:40:56;9.90;;;6.30;;
52590;SDS011;38483;42.620;25.394;2023-03-16T00:44:17;10.60;;;6.13;;
52590;SDS011;38483;42.620;25.394;2023-03-16T00:47:38;9.03;;;6.43;;
52590;SDS011;38483;42.620;25.394;2023-03-16T00:51:04;11.50;;;6.63;;
52590;SDS011;38483;42.620;25.394;2023-03-16T00:54:25;8.13;;;6.30;;
52590;SDS011;38483;42.620;25.394;2023-03-16T00:57:46;8.20;;;6.30;;
52590;SDS011;38483;42.620;25.394;2023-03-16T01:01:07;10.07;;;6.47;;
52590;SDS011;38483;42.620;25.394;2023-03-16T01:04:27;10.40;;;7.03;;
52590;SDS011;38483;42.620;25.394;2023-03-16T01:07:50;10.07;;;6.97;;
52590;SDS011;38483;42.620;25.394;2023-03-16T01:11:13;10.07;;;6.40;;
52590;SDS011;38483;42.620;25.394;2023-03-16T01:14:34;11.03;;;7.40;;
52590;SDS011;38483;42.620;25.394;2023-03-16T01:17:54;10.37;;;7.23;;
52590;SDS011;38483;42.620;25.394;2023-03-16T01:21:15;10.10;;;7.37;;
52590;SDS011;38483;42.620;25.394;2023-03-16T01:24:37;11.57;;;7.33;;
52590;SDS011;38483;42.620;25.394;2023-03-16T01:27:57;10.53;;;7.80;;
52590;SDS011;38483;42.620;25.394;2023-03-16T01:31:18;9.83;;;7.03;;
52590;SDS011;38483;42.620;25.394;2023-03-16T01:34:39;10.53;;;7.33;;
52590;SDS011;38483;42.620;25.394;2023-03-16T01:38:01;10.50;;;7.43;;
52590;SDS011;38483;42.620;25.394;2023-03-16T01:41:25;12.93;;;8.10;;
52590;SDS011;38483;42.620;25.394;2023-03-16T01:44:51;11.40;;;7.53;;
52590;SDS011;38483;42.620;25.394;2023-03-16T01:48:09;14.50;;;7.83;;
52590;SDS011;38483;42.620;25.394;2023-03-16T01:57:52;11.43;;;7.30;;
52590;SDS011;38483;42.620;25.394;2023-03-16T02:01:13;10.37;;;7.90;;
52590;SDS011;38483;42.620;25.394;2023-03-16T02:05:18;10.90;;;8.17;;
52590;SDS011;38483;42.620;25.394;2023-03-16T02:07:59;14.33;;;9.20;;
52590;SDS011;38483;42.620;25.394;2023-03-16T02:11:20;12.70;;;8.33;;
52590;SDS011;38483;42.620;25.394;2023-03-16T02:14:41;10.73;;;7.67;;
52590;SDS011;38483;42.620;25.394;2023-03-16T02:18:22;11.10;;;8.27;;
52590;SDS011;38483;42.620;25.394;2023-03-16T02:24:30;11.80;;;8.37;;
52590;SDS011;38483;42.620;25.394;2023-03-16T02:30:45;11.87;;;8.57;;
52590;SDS011;38483;42.620;25.394;2023-03-16T02:34:05;15.53;;;9.13;;
52590;SDS011;38483;42.620;25.394;2023-03-16T02:37:26;11.60;;;7.57;;
52590;SDS011;38483;42.620;25.394;2023-03-16T02:40:57;10.10;;;8.27;;
52590;SDS011;38483;42.620;25.394;2023-03-16T02:44:19;12.20;;;8.90;;
52590;SDS011;38483;42.620;25.394;2023-03-16T02:47:39;13.10;;;9.03;;
52590;SDS011;38483;42.620;25.394;2023-03-16T02:51:01;12.47;;;8.33;;
52590;SDS011;38483;42.620;25.394;2023-03-16T02:54:22;10.77;;;8.17;;
52590;SDS011;38483;42.620;25.394;2023-03-16T02:57:45;13.63;;;8.83;;
52590;SDS011;38483;42.620;25.394;2023-03-16T03:01:11;13.80;;;8.97;;
52590;SDS011;38483;42.620;25.394;2023-03-16T03:04:31;14.13;;;8.47;;
52590;SDS011;38483;42.620;25.394;2023-03-16T03:07:52;13.03;;;9.57;;
52590;SDS011;38483;42.620;25.394;2023-03-16T03:11:13;14.57;;;10.70;;
52590;SDS011;38483;42.620;25.394;2023-03-16T03:14:33;13.37;;;9.13;;
52590;SDS011;38483;42.620;25.394;2023-03-16T03:18:05;19.43;;;12.57;;
52590;SDS011;38483;42.620;25.394;2023-03-16T03:21:29;14.53;;;10.10;;
52590;SDS011;38483;42.620;25.394;2023-03-16T03:24:49;15.43;;;9.57;;
52590;SDS011;38483;42.620;25.394;2023-03-16T03:28:15;14.50;;;10.57;;
52590;SDS011;38483;42.620;25.394;2023-03-16T03:31:37;13.23;;;9.67;;
52590;SDS011;38483;42.620;25.394;2023-03-16T03:34:58;12.70;;;9.40;;
52590;SDS011;38483;42.620;25.394;2023-03-16T03:38:18;13.03;;;9.33;;
52590;SDS011;38483;42.620;25.394;2023-03-16T03:41:39;11.83;;;9.17;;
52590;SDS011;38483;42.620;25.394;2023-03-16T03:45:04;13.53;;;8.80;;
52590;SDS011;38483;42.620;25.394;2023-03-16T03:48:25;12.00;;;7.80;;
52590;SDS011;38483;42.620;25.394;2023-03-16T03:51:48;8.87;;;7.23;;
52590;SDS011;38483;42.620;25.394;2023-03-16T03:55:09;11.00;;;7.37;;
52590;SDS011;38483;42.620;25.394;2023-03-16T03:58:30;30.17;;;16.03;;
52590;SDS011;38483;42.620;25.394;2023-03-16T04:02:10;30.93;;;18.93;;
52590;SDS011;38483;42.620;25.394;2023-03-16T04:05:37;27.90;;;16.33;;
52590;SDS011;38483;42.620;25.394;2023-03-16T04:08:58;11.33;;;7.87;;
52590;SDS011;38483;42.620;25.394;2023-03-16T04:12:25;11.83;;;10.17;;
52590;SDS011;38483;42.620;25.394;2023-03-16T04:15:47;4.67;;;3.90;;
52590;SDS011;38483;42.620;25.394;2023-03-16T04:19:10;7.90;;;5.33;;
52590;SDS011;38483;42.620;25.394;2023-03-16T04:22:31;4.80;;;3.60;;
52590;SDS011;38483;42.620;25.394;2023-03-16T04:25:53;5.03;;;3.60;;
52590;SDS011;38483;42.620;25.394;2023-03-16T04:29:15;6.10;;;3.80;;
52590;SDS011;38483;42.620;25.394;2023-03-16T04:32:44;7.00;;;4.97;;
52590;SDS011;38483;42.620;25.394;2023-03-16T04:36:05;7.20;;;4.70;;
52590;SDS011;38483;42.620;25.394;2023-03-16T04:39:26;5.87;;;3.23;;
52590;SDS011;38483;42.620;25.394;2023-03-16T04:43:05;5.47;;;3.73;;
52590;SDS011;38483;42.620;25.394;2023-03-16T04:46:27;5.17;;;3.80;;
52590;SDS011;38483;42.620;25.394;2023-03-16T04:49:47;6.33;;;4.07;;
52590;SDS011;38483;42.620;25.394;2023-03-16T04:53:08;5.60;;;3.80;;
52590;SDS011;38483;42.620;25.394;2023-03-16T04:56:33;8.77;;;4.87;;
52590;SDS011;38483;42.620;25.394;2023-03-16T04:59:58;6.43;;;4.40;;
52590;SDS011;38483;42.620;25.394;2023-03-16T05:03:24;5.87;;;4.77;;
52590;SDS011;38483;42.620;25.394;2023-03-16T05:06:45;7.37;;;5.03;;
52590;SDS011;38483;42.620;25.394;2023-03-16T05:10:06;6.70;;;4.80;;
52590;SDS011;38483;42.620;25.394;2023-03-16T05:13:32;5.90;;;4.57;;
52590;SDS011;38483;42.620;25.394;2023-03-16T05:17:16;7.00;;;5.07;;
52590;SDS011;38483;42.620;25.394;2023-03-16T05:20:37;7.77;;;5.47;;
52590;SDS011;38483;42.620;25.394;2023-03-16T05:24:03;7.93;;;6.07;;
52590;SDS011;38483;42.620;25.394;2023-03-16T05:27:23;6.60;;;5.33;;
52590;SDS011;38483;42.620;25.394;2023-03-16T05:30:56;7.57;;;4.80;;
52590;SDS011;38483;42.620;25.394;2023-03-16T05:34:21;8.33;;;5.07;;
52590;SDS011;38483;42.620;25.394;2023-03-16T05:37:43;7.93;;;5.63;;
52590;SDS011;38483;42.620;25.394;2023-03-16T05:41:07;7.33;;;5.23;;
52590;SDS011;38483;42.620;25.394;2023-03-16T05:44:46;7.97;;;5.67;;
52590;SDS011;38483;42.620;25.394;2023-03-16T05:48:11;8.33;;;5.93;;
52590;SDS011;38483;42.620;25.394;2023-03-16T05:51:32;10.33;;;6.40;;
52590;SDS011;38483;42.620;25.394;2023-03-16T05:54:55;10.40;;;6.33;;
52590;SDS011;38483;42.620;25.394;2023-03-16T05:58:15;8.13;;;5.57;;
52590;SDS011;38483;42.620;25.394;2023-03-16T06:01:36;8.23;;;5.93;;
52590;SDS011;38483;42.620;25.394;2023-03-16T06:04:57;7.33;;;5.87;;
52590;SDS011;38483;42.620;25.394;2023-03-16T06:08:25;8.50;;;5.53;;
52590;SDS011;38483;42.620;25.394;2023-03-16T06:11:47;8.77;;;5.20;;
52590;SDS011;38483;42.620;25.394;2023-03-16T06:15:08;8.53;;;5.63;;
52590;SDS011;38483;42.620;25.394;2023-03-16T06:18:29;8.17;;;5.00;;
52590;SDS011;38483;42.620;25.394;2023-03-16T06:21:55;6.53;;;4.30;;
52590;SDS011;38483;42.620;25.394;2023-03-16T06:24:43;8.20;;;5.43;;
52590;SDS011;38483;42.620;25.394;2023-03-16T06:27:13;6.87;;;5.10;;
52590;SDS011;38483;42.620;25.394;2023-03-16T06:29:57;7.23;;;4.97;;
52590;SDS011;38483;42.620;25.394;2023-03-16T06:32:24;7.10;;;4.33;;
52590;SDS011;38483;42.620;25.394;2023-03-16T06:34:52;6.70;;;4.90;;
52590;SDS011;38483;42.620;25.394;2023-03-16T06:37:19;6.63;;;4.87;;
52590;SDS011;38483;42.620;25.394;2023-03-16T06:39:48;6.00;;;4.77;;
52590;SDS011;38483;42.620;25.394;2023-03-16T06:42:15;6.83;;;4.67;;
52590;SDS011;38483;42.620;25.394;2023-03-16T06:44:43;5.73;;;4.33;;
52590;SDS011;38483;42.620;25.394;2023-03-16T06:47:12;5.40;;;4.27;;
52590;SDS011;38483;42.620;25.394;2023-03-16T06:49:39;6.70;;;4.93;;
52590;SDS011;38483;42.620;25.394;2023-03-16T06:52:14;5.90;;;4.50;;
52590;SDS011;38483;42.620;25.394;2023-03-16T06:54:41;8.77;;;4.27;;
52590;SDS011;38483;42.620;25.394;2023-03-16T06:57:09;6.00;;;5.17;;
52590;SDS011;38483;42.620;25.394;2023-03-16T06:59:36;6.47;;;4.47;;
52590;SDS011;38483;42.620;25.394;2023-03-16T07:02:03;7.40;;;4.20;;
52590;SDS011;38483;42.620;25.394;2023-03-16T07:04:30;6.20;;;4.50;;
52590;SDS011;38483;42.620;25.394;2023-03-16T07:06:57;7.10;;;4.97;;
52590;SDS011;38483;42.620;25.394;2023-03-16T07:09:25;5.67;;;4.13;;
52590;SDS011;38483;42.620;25.394;2023-03-16T07:11:52;6.60;;;4.40;;
52590;SDS011;38483;42.620;25.394;2023-03-16T07:14:20;6.07;;;4.63;;
52590;SDS011;38483;42.620;25.394;2023-03-16T07:16:50;6.50;;;4.40;;
52590;SDS011;38483;42.620;25.394;2023-03-16T07:19:21;7.67;;;4.70;;
52590;SDS011;38483;42.620;25.394;2023-03-16T07:21:48;6.30;;;4.50;;
52590;SDS011;38483;42.620;25.394;2023-03-16T07:24:18;7.70;;;4.30;;
52590;SDS011;38483;42.620;25.394;2023-03-16T07:26:46;6.20;;;4.20;;
52590;SDS011;38483;42.620;25.394;2023-03-16T07:29:22;6.20;;;4.57;;
52590;SDS011;38483;42.620;25.394;2023-03-16T07:31:49;8.37;;;4.60;;
52590;SDS011;38483;42.620;25.394;2023-03-16T07:34:20;7.17;;;4.20;;
52590;SDS011;38483;42.620;25.394;2023-03-16T07:36:52;6.80;;;4.37;;
52590;SDS011;38483;42.620;25.394;2023-03-16T07:39:22;7.83;;;4.63;;
52590;SDS011;38483;42.620;25.394;2023-03-16T07:41:53;8.40;;;4.93;;
52590;SDS011;38483;42.620;25.394;2023-03-16T07:44:35;6.93;;;3.83;;
52590;SDS011;38483;42.620;25.394;2023-03-16T07:47:02;8.90;;;4.67;;
52590;SDS011;38483;42.620;25.394;2023-03-16T07:49:30;9.63;;;4.70;;
52590;SDS011;38483;42.620;25.394;2023-03-16T07:51:59;7.53;;;4.80;;
52590;SDS011;38483;42.620;25.394;2023-03-16T07:54:34;6.23;;;4.10;;
52590;SDS011;38483;42.620;25.394;2023-03-16T07:57:04;9.23;;;5.67;;
52590;SDS011;38483;42.620;25.394;2023-03-16T07:59:37;7.87;;;4.23;;
52590;SDS011;38483;42.620;25.394;2023-03-16T08:02:11;8.10;;;4.77;;
52590;SDS011;38483;42.620;25.394;2023-03-16T08:04:40;7.20;;;4.80;;
52590;SDS011;38483;42.620;25.394;2023-03-16T08:07:13;5.50;;;4.27;;
52590;SDS011;38483;42.620;25.394;2023-03-16T08:09:52;10.10;;;6.63;;
52590;SDS011;38483;42.620;25.394;2023-03-16T08:12:25;11.63;;;5.97;;
52590;SDS011;38483;42.620;25.394;2023-03-16T08:14:52;9.67;;;5.87;;
52590;SDS011;38483;42.620;25.394;2023-03-16T08:17:25;12.10;;;6.50;;
52590;SDS011;38483;42.620;25.394;2023-03-16T08:19:52;6.60;;;4.37;;
52590;SDS011;38483;42.620;25.394;2023-03-16T08:22:20;8.53;;;5.77;;
52590;SDS011;38483;42.620;25.394;2023-03-16T08:24:48;9.20;;;6.30;;
52590;SDS011;38483;42.620;25.394;2023-03-16T08:27:16;9.93;;;5.90;;
52590;SDS011;38483;42.620;25.394;2023-03-16T08:29:51;6.80;;;5.30;;
52590;SDS011;38483;42.620;25.394;2023-03-16T08:32:21;13.37;;;6.30;;
52590;SDS011;38483;42.620;25.394;2023-03-16T08:34:50;9.30;;;5.60;;
52590;SDS011;38483;42.620;25.394;2023-03-16T08:37:18;6.60;;;4.53;;
52590;SDS011;38483;42.620;25.394;2023-03-16T08:39:46;6.97;;;4.03;;
52590;SDS011;38483;42.620;25.394;2023-03-16T08:42:17;5.60;;;4.20;;
52590;SDS011;38483;42.620;25.394;2023-03-16T08:44:50;5.37;;;4.20;;
52590;SDS011;38483;42.620;25.394;2023-03-16T08:47:21;5.27;;;4.00;;
52590;SDS011;38483;42.620;25.394;2023-03-16T08:49:48;7.17;;;4.80;;
52590;SDS011;38483;42.620;25.394;2023-03-16T08:52:17;9.53;;;4.30;;
52590;SDS011;38483;42.620;25.394;2023-03-16T08:54:44;4.27;;;3.60;;
52590;SDS011;38483;42.620;25.394;2023-03-16T08:57:29;6.13;;;4.40;;
52590;SDS011;38483;42.620;25.394;2023-03-16T08:59:56;6.27;;;4.07;;
52590;SDS011;38483;42.620;25.394;2023-03-16T09:02:23;4.97;;;3.40;;
52590;SDS011;38483;42.620;25.394;2023-03-16T09:04:51;13.73;;;3.83;;
52590;SDS011;38483;42.620;25.394;2023-03-16T09:07:18;4.10;;;3.13;;
52590;SDS011;38483;42.620;25.394;2023-03-16T09:09:46;4.00;;;3.20;;
52590;SDS011;38483;42.620;25.394;2023-03-16T09:12:13;4.60;;;3.10;;
52590;SDS011;38483;42.620;25.394;2023-03-16T09:14:40;3.67;;;2.93;;
52590;SDS011;38483;42.620;25.394;2023-03-16T09:17:07;3.27;;;2.90;;
52590;SDS011;38483;42.620;25.394;2023-03-16T09:19:34;4.00;;;2.93;;
52590;SDS011;38483;42.620;25.394;2023-03-16T09:22:20;3.70;;;2.40;;
52590;SDS011;38483;42.620;25.394;2023-03-16T09:24:47;3.67;;;3.00;;
52590;SDS011;38483;42.620;25.394;2023-03-16T09:27:15;3.57;;;2.43;;
52590;SDS011;38483;42.620;25.394;2023-03-16T09:29:43;3.37;;;2.17;;
52590;SDS011;38483;42.620;25.394;2023-03-16T09:32:11;4.07;;;2.57;;
52590;SDS011;38483;42.620;25.394;2023-03-16T09:34:38;4.00;;;2.80;;
52590;SDS011;38483;42.620;25.394;2023-03-16T09:37:05;2.97;;;2.47;;
52590;SDS011;38483;42.620;25.394;2023-03-16T09:39:32;4.37;;;2.67;;
52590;SDS011;38483;42.620;25.394;2023-03-16T09:47:44;3.07;;;2.53;;
52590;SDS011;38483;42.620;25.394;2023-03-16T09:50:20;2.90;;;2.00;;
52590;SDS011;38483;42.620;25.394;2023-03-16T09:55:37;3.07;;;2.37;;
52590;SDS011;38483;42.620;25.394;2023-03-16T09:58:14;4.10;;;2.03;;
52590;SDS011;38483;42.620;25.394;2023-03-16T10:00:46;3.87;;;3.33;;
52590;SDS011;38483;42.620;25.394;2023-03-16T10:03:48;3.37;;;2.50;;
52590;SDS011;38483;42.620;25.394;2023-03-16T10:06:54;1.80;;;1.67;;
52590;SDS011;38483;42.620;25.394;2023-03-16T10:09:32;2.13;;;1.70;;
52590;SDS011;38483;42.620;25.394;2023-03-16T10:12:03;2.57;;;2.17;;
52590;SDS011;38483;42.620;25.394;2023-03-16T10:17:38;2.73;;;2.20;;
52590;SDS011;38483;42.620;25.394;2023-03-16T10:20:23;2.27;;;2.07;;
52590;SDS011;38483;42.620;25.394;2023-03-16T10:22:53;3.17;;;2.23;;
52590;SDS011;38483;42.620;25.394;2023-03-16T10:25:22;3.33;;;2.03;;
52590;SDS011;38483;42.620;25.394;2023-03-16T10:27:56;2.40;;;1.93;;
52590;SDS011;38483;42.620;25.394;2023-03-16T10:30:24;4.07;;;2.50;;
52590;SDS011;38483;42.620;25.394;2023-03-16T10:33:28;3.00;;;1.80;;
52590;SDS011;38483;42.620;25.394;2023-03-16T10:40:58;2.43;;;2.23;;
52590;SDS011;38483;42.620;25.394;2023-03-16T10:43:27;4.17;;;2.73;;
52590;SDS011;38483;42.620;25.394;2023-03-16T10:45:59;2.40;;;1.90;;
52590;SDS011;38483;42.620;25.394;2023-03-16T10:48:29;2.47;;;2.10;;
52590;SDS011;38483;42.620;25.394;2023-03-16T10:50:59;2.70;;;1.97;;
52590;SDS011;38483;42.620;25.394;2023-03-16T10:53:34;3.20;;;1.90;;
52590;SDS011;38483;42.620;25.394;2023-03-16T10:56:23;3.23;;;1.70;;
52590;SDS011;38483;42.620;25.394;2023-03-16T10:58:50;2.50;;;1.63;;
52590;SDS011;38483;42.620;25.394;2023-03-16T11:01:19;2.47;;;1.90;;
52590;SDS011;38483;42.620;25.394;2023-03-16T11:03:50;3.33;;;2.53;;
52590;SDS011;38483;42.620;25.394;2023-03-16T11:06:21;3.97;;;2.43;;
52590;SDS011;38483;42.620;25.394;2023-03-16T11:09:18;2.63;;;1.90;;
52590;SDS011;38483;42.620;25.394;2023-03-16T11:11:48;2.70;;;1.97;;
52590;SDS011;38483;42.620;25.394;2023-03-16T11:14:18;2.43;;;1.90;;
52590;SDS011;38483;42.620;25.394;2023-03-16T11:19:49;4.43;;;2.57;;
52590;SDS011;38483;42.620;25.394;2023-03-16T11:22:21;3.20;;;2.50;;
52590;SDS011;38483;42.620;25.394;2023-03-16T11:27:32;3.50;;;2.63;;
52590;SDS011;38483;42.620;25.394;2023-03-16T11:32:50;4.20;;;3.17;;
52590;SDS011;38483;42.620;25.394;2023-03-16T11:35:21;3.53;;;3.00;;
52590;SDS011;38483;42.620;25.394;2023-03-16T11:43:48;5.03;;;2.80;;
52590;SDS011;38483;42.620;25.394;2023-03-16T12:00:39;3.80;;;3.03;;
52590;SDS011;38483;42.620;25.394;2023-03-16T12:09:29;4.70;;;2.50;;
52590;SDS011;38483;42.620;25.394;2023-03-16T12:12:35;3.03;;;2.30;;
52590;SDS011;38483;42.620;25.394;2023-03-16T12:17:59;3.37;;;2.47;;
52590;SDS011;38483;42.620;25.394;2023-03-16T12:20:57;4.87;;;2.50;;
52590;SDS011;38483;42.620;25.394;2023-03-16T12:26:14;3.67;;;2.47;;
52590;SDS011;38483;42.620;25.394;2023-03-16T12:28:43;5.10;;;2.60;;
52590;SDS011;38483;42.620;25.394;2023-03-16T12:31:18;4.13;;;2.93;;
52590;SDS011;38483;42.620;25.394;2023-03-16T12:40:07;3.50;;;2.13;;
52590;SDS011;38483;42.620;25.394;2023-03-16T12:42:34;3.50;;;2.60;;
52590;SDS011;38483;42.620;25.394;2023-03-16T12:45:32;3.00;;;2.53;;
52590;SDS011;38483;42.620;25.394;2023-03-16T12:48:18;3.13;;;2.40;;
52590;SDS011;38483;42.620;25.394;2023-03-16T12:50:59;3.07;;;2.40;;
52590;SDS011;38483;42.620;25.394;2023-03-16T12:53:45;3.20;;;2.37;;
52590;SDS011;38483;42.620;25.394;2023-03-16T12:56:14;2.60;;;2.00;;
52590;SDS011;38483;42.620;25.394;2023-03-16T12:58:48;3.07;;;2.40;;
52590;SDS011;38483;42.620;25.394;2023-03-16T13:01:16;4.30;;;2.73;;
52590;SDS011;38483;42.620;25.394;2023-03-16T13:03:47;2.63;;;2.40;;
52590;SDS011;38483;42.620;25.394;2023-03-16T13:06:20;4.50;;;2.77;;
52590;SDS011;38483;42.620;25.394;2023-03-16T13:08:51;5.93;;;3.00;;
52590;SDS011;38483;42.620;25.394;2023-03-16T13:11:25;3.43;;;2.73;;
52590;SDS011;38483;42.620;25.394;2023-03-16T13:16:28;3.07;;;2.07;;
52590;SDS011;38483;42.620;25.394;2023-03-16T13:18:57;3.50;;;2.40;;
52590;SDS011;38483;42.620;25.394;2023-03-16T13:23:57;4.70;;;1.90;;
52590;SDS011;38483;42.620;25.394;2023-03-16T13:26:35;3.93;;;2.43;;
52590;SDS011;38483;42.620;25.394;2023-03-16T13:31:48;2.83;;;1.80;;
52590;SDS011;38483;42.620;25.394;2023-03-16T13:34:21;3.43;;;2.47;;
52590;SDS011;38483;42.620;25.394;2023-03-16T13:36:59;2.80;;;2.20;;
52590;SDS011;38483;42.620;25.394;2023-03-16T13:39:28;3.33;;;2.10;;
52590;SDS011;38483;42.620;25.394;2023-03-16T13:41:58;3.17;;;2.23;;
52590;SDS011;38483;42.620;25.394;2023-03-16T13:44:39;2.03;;;1.87;;
52590;SDS011;38483;42.620;25.394;2023-03-16T13:47:11;2.30;;;2.00;;
52590;SDS011;38483;42.620;25.394;2023-03-16T13:49:43;3.27;;;1.90;;
52590;SDS011;38483;42.620;25.394;2023-03-16T13:52:18;3.53;;;2.00;;
52590;SDS011;38483;42.620;25.394;2023-03-16T13:54:47;3.97;;;1.90;;
52590;SDS011;38483;42.620;25.394;2023-03-16T13:57:15;3.03;;;2.17;;
52590;SDS011;38483;42.620;25.394;2023-03-16T13:59:46;2.77;;;2.23;;
52590;SDS011;38483;42.620;25.394;2023-03-16T14:02:17;2.00;;;1.80;;
52590;SDS011;38483;42.620;25.394;2023-03-16T14:04:48;2.10;;;1.90;;
52590;SDS011;38483;42.620;25.394;2023-03-16T14:07:16;2.77;;;1.50;;
52590;SDS011;38483;42.620;25.394;2023-03-16T14:09:45;2.30;;;1.97;;
52590;SDS011;38483;42.620;25.394;2023-03-16T14:12:17;3.53;;;1.80;;
52590;SDS011;38483;42.620;25.394;2023-03-16T14:14:46;3.67;;;2.40;;
52590;SDS011;38483;42.620;25.394;2023-03-16T14:17:17;4.73;;;1.63;;
52590;SDS011;38483;42.620;25.394;2023-03-16T14:19:48;2.47;;;1.77;;
52590;SDS011;38483;42.620;25.394;2023-03-16T14:22:17;2.10;;;1.47;;
52590;SDS011;38483;42.620;25.394;2023-03-16T14:24:51;4.73;;;2.93;;
52590;SDS011;38483;42.620;25.394;2023-03-16T14:27:42;2.33;;;2.10;;
52590;SDS011;38483;42.620;25.394;2023-03-16T14:35:30;1.40;;;1.30;;
52590;SDS011;38483;42.620;25.394;2023-03-16T14:38:20;1.50;;;1.40;;
52590;SDS011;38483;42.620;25.394;2023-03-16T14:41:01;1.60;;;1.40;;
52590;SDS011;38483;42.620;25.394;2023-03-16T14:44:22;2.40;;;1.87;;
52590;SDS011;38483;42.620;25.394;2023-03-16T14:47:43;3.07;;;1.90;;
52590;SDS011;38483;42.620;25.394;2023-03-16T14:50:28;4.30;;;2.60;;
52590;SDS011;38483;42.620;25.394;2023-03-16T14:52:57;3.23;;;2.03;;
52590;SDS011;38483;42.620;25.394;2023-03-16T14:55:25;3.00;;;2.17;;
52590;SDS011;38483;42.620;25.394;2023-03-16T14:57:52;5.07;;;1.93;;
52590;SDS011;38483;42.620;25.394;2023-03-16T15:00:19;2.57;;;1.80;;
52590;SDS011;38483;42.620;25.394;2023-03-16T15:03:22;2.70;;;2.00;;
52590;SDS011;38483;42.620;25.394;2023-03-16T15:05:44;2.40;;;1.80;;
52590;SDS011;38483;42.620;25.394;2023-03-16T15:08:22;3.13;;;1.83;;
52590;SDS011;38483;42.620;25.394;2023-03-16T15:10:54;1.90;;;1.70;;
52590;SDS011;38483;42.620;25.394;2023-03-16T15:13:26;2.07;;;1.80;;
52590;SDS011;38483;42.620;25.394;2023-03-16T15:16:05;2.50;;;1.90;;
52590;SDS011;38483;42.620;25.394;2023-03-16T15:18:36;2.60;;;2.40;;
52590;SDS011;38483;42.620;25.394;2023-03-16T15:21:11;3.20;;;2.20;;
52590;SDS011;38483;42.620;25.394;2023-03-16T15:23:40;2.73;;;2.30;;
52590;SDS011;38483;42.620;25.394;2023-03-16T15:26:09;3.73;;;2.70;;
52590;SDS011;38483;42.620;25.394;2023-03-16T15:28:38;3.10;;;2.60;;
52590;SDS011;38483;42.620;25.394;2023-03-16T15:31:05;2.57;;;2.30;;
52590;SDS011;38483;42.620;25.394;2023-03-16T15:33:32;2.73;;;2.20;;
52590;SDS011;38483;42.620;25.394;2023-03-16T15:36:00;2.23;;;1.77;;
52590;SDS011;38483;42.620;25.394;2023-03-16T15:38:47;2.07;;;1.87;;
52590;SDS011;38483;42.620;25.394;2023-03-16T15:41:16;2.63;;;2.20;;
52590;SDS011;38483;42.620;25.394;2023-03-16T15:43:44;1.80;;;1.60;;
52590;SDS011;38483;42.620;25.394;2023-03-16T15:46:11;2.03;;;1.80;;
52590;SDS011;38483;42.620;25.394;2023-03-16T15:48:40;2.10;;;1.90;;
52590;SDS011;38483;42.620;25.394;2023-03-16T15:51:11;2.30;;;2.10;;
52590;SDS011;38483;42.620;25.394;2023-03-16T15:53:52;4.70;;;2.10;;
52590;SDS011;38483;42.620;25.394;2023-03-16T15:56:23;2.60;;;2.37;;
52590;SDS011;38483;42.620;25.394;2023-03-16T15:58:56;2.40;;;1.77;;
52590;SDS011;38483;42.620;25.394;2023-03-16T16:01:27;2.13;;;1.83;;
52590;SDS011;38483;42.620;25.394;2023-03-16T16:03:57;2.47;;;2.07;;
52590;SDS011;38483;42.620;25.394;2023-03-16T16:06:24;3.13;;;2.03;;
52590;SDS011;38483;42.620;25.394;2023-03-16T16:08:54;2.07;;;1.87;;
52590;SDS011;38483;42.620;25.394;2023-03-16T16:11:22;2.20;;;2.00;;
52590;SDS011;38483;42.620;25.394;2023-03-16T16:13:52;3.87;;;2.37;;
52590;SDS011;38483;42.620;25.394;2023-03-16T16:16:21;2.07;;;1.87;;
52590;SDS011;38483;42.620;25.394;2023-03-16T16:18:49;2.30;;;2.03;;
52590;SDS011;38483;42.620;25.394;2023-03-16T16:21:17;2.07;;;1.87;;
52590;SDS011;38483;42.620;25.394;2023-03-16T16:23:49;1.73;;;1.60;;
52590;SDS011;38483;42.620;25.394;2023-03-16T16:28:48;3.10;;;1.93;;
52590;SDS011;38483;42.620;25.394;2023-03-16T16:31:16;1.93;;;1.73;;
52590;SDS011;38483;42.620;25.394;2023-03-16T16:33:45;1.97;;;1.77;;
52590;SDS011;38483;42.620;25.394;2023-03-16T16:36:12;2.87;;;1.90;;
52590;SDS011;38483;42.620;25.394;2023-03-16T16:38:46;2.37;;;2.00;;
52590;SDS011;38483;42.620;25.394;2023-03-16T16:41:47;2.30;;;2.00;;
52590;SDS011;38483;42.620;25.394;2023-03-16T16:44:14;2.50;;;1.83;;
52590;SDS011;38483;42.620;25.394;2023-03-16T16:46:44;2.80;;;2.37;;
52590;SDS011;38483;42.620;25.394;2023-03-16T16:49:23;3.13;;;2.03;;
52590;SDS011;38483;42.620;25.394;2023-03-16T16:51:53;3.10;;;2.13;;
52590;SDS011;38483;42.620;25.394;2023-03-16T16:54:22;3.07;;;2.10;;
52590;SDS011;38483;42.620;25.394;2023-03-16T16:57:41;2.00;;;1.80;;
52590;SDS011;38483;42.620;25.394;2023-03-16T17:01:02;2.33;;;1.87;;
52590;SDS011;38483;42.620;25.394;2023-03-16T17:04:24;3.20;;;2.43;;
52590;SDS011;38483;42.620;25.394;2023-03-16T17:07:44;1.63;;;1.50;;
52590;SDS011;38483;42.620;25.394;2023-03-16T17:11:05;1.97;;;1.77;;
52590;SDS011;38483;42.620;25.394;2023-03-16T17:13:57;3.57;;;2.00;;
52590;SDS011;38483;42.620;25.394;2023-03-16T17:16:30;2.87;;;2.10;;
52590;SDS011;38483;42.620;25.394;2023-03-16T17:19:00;1.73;;;1.60;;
52590;SDS011;38483;42.620;25.394;2023-03-16T17:21:27;4.43;;;2.30;;
52590;SDS011;38483;42.620;25.394;2023-03-16T17:23:56;2.47;;;1.97;;
52590;SDS011;38483;42.620;25.394;2023-03-16T17:29:05;1.87;;;1.77;;
52590;SDS011;38483;42.620;25.394;2023-03-16T17:31:39;1.80;;;1.57;;
52590;SDS011;38483;42.620;25.394;2023-03-16T17:36:51;1.80;;;1.70;;
52590;SDS011;38483;42.620;25.394;2023-03-16T17:41:58;2.23;;;1.60;;
52590;SDS011;38483;42.620;25.394;2023-03-16T17:44:33;2.03;;;1.60;;
52590;SDS011;38483;42.620;25.394;2023-03-16T17:47:09;1.90;;;1.50;;
52590;SDS011;38483;42.620;25.394;2023-03-16T17:49:39;1.70;;;1.60;;
52590;SDS011;38483;42.620;25.394;2023-03-16T17:52:12;1.50;;;1.40;;
52590;SDS011;38483;42.620;25.394;2023-03-16T17:54:58;2.70;;;1.70;;
52590;SDS011;38483;42.620;25.394;2023-03-16T17:57:26;2.80;;;1.70;;
52590;SDS011;38483;42.620;25.394;2023-03-16T17:59:55;2.03;;;1.83;;
52590;SDS011;38483;42.620;25.394;2023-03-16T18:05:35;2.10;;;1.47;;
52590;SDS011;38483;42.620;25.394;2023-03-16T18:08:14;3.93;;;2.77;;
52590;SDS011;38483;42.620;25.394;2023-03-16T18:10:46;1.70;;;1.60;;
52590;SDS011;38483;42.620;25.394;2023-03-16T18:16:13;3.40;;;1.83;;
52590;SDS011;38483;42.620;25.394;2023-03-16T18:18:45;1.90;;;1.70;;
52590;SDS011;38483;42.620;25.394;2023-03-16T18:21:19;3.10;;;2.20;;
52590;SDS011;38483;42.620;25.394;2023-03-16T18:23:49;3.43;;;1.70;;